sensor_id;sensor_type;location;lat;lon;timestamp;pressure;altitude;pressure_sealevel;temperature;humidity
15634;BME280;14654;48.898;8.308;2022-09-16T00:00:10;99741.50;;;14.08;100.00
15634;BME280;14654;48.898;8.308;2022-09-16T00:02:36;99738.91;;;14.08;100.00
15634;BME280;14654;48.898;8.308;2022-09-16T00:05:01;99755.41;;;14.09;100.00
15634;BME280;14654;48.898;8.308;2022-09-16T00:07:28;99744.09;;;14.10;100.00
15634;BME280;14654;48.898;8.308;2022-09-16T00:09:54;99739.78;;;14.09;100.00
15634;BME280;14654;48.898;8.308;2022-09-16T00:12:19;99745.78;;;14.11;100.00
15634;BME280;14654;48.898;8.308;2022-09-16T00:14:44;99744.03;;;14.11;100.00
15634;BME280;14654;48.898;8.308;2022-09-16T00:17:10;99744.09;;;14.10;100.00
15634;BME280;14654;48.898;8.308;2022-09-16T00:19:35;99741.50;;;14.08;100.00
15634;BME280;14654;48.898;8.308;2022-09-16T00:22:00;99739.88;;;14.06;100.00
15634;BME280;14654;48.898;8.308;2022-09-16T00:24:26;99737.38;;;14.02;100.00
15634;BME280;14654;48.898;8.308;2022-09-16T00:26:52;99730.53;;;14.00;100.00
15634;BME280;14654;48.898;8.308;2022-09-16T00:29:17;99727.97;;;13.98;100.00
15634;BME280;14654;48.898;8.308;2022-09-16T00:31:43;99728.88;;;13.97;100.00
15634;BME280;14654;48.898;8.308;2022-09-16T00:34:08;99738.47;;;13.95;100.00
15634;BME280;14654;48.898;8.308;2022-09-16T00:36:33;99736.81;;;13.93;100.00
15634;BME280;14654;48.898;8.308;2022-09-16T00:38:59;99737.00;;;13.86;100.00
15634;BME280;14654;48.898;8.308;2022-09-16T00:41:27;99739.00;;;13.78;100.00
15634;BME280;14654;48.898;8.308;2022-09-16T00:43:56;99734.91;;;13.69;100.00
15634;BME280;14654;48.898;8.308;2022-09-16T00:46:30;99731.72;;;13.61;100.00
15634;BME280;14654;48.898;8.308;2022-09-16T00:49:00;99735.34;;;13.55;100.00
15634;BME280;14654;48.898;8.308;2022-09-16T00:51:27;99726.91;;;13.49;100.00
15634;BME280;14654;48.898;8.308;2022-09-16T00:53:57;99739.91;;;13.47;100.00
15634;BME280;14654;48.898;8.308;2022-09-16T00:56:26;99738.13;;;13.49;100.00
15634;BME280;14654;48.898;8.308;2022-09-16T00:58:59;99733.66;;;13.54;100.00
15634;BME280;14654;48.898;8.308;2022-09-16T01:01:28;99737.06;;;13.56;100.00
15634;BME280;14654;48.898;8.308;2022-09-16T01:04:07;99734.38;;;13.60;100.00
15634;BME280;14654;48.898;8.308;2022-09-16T01:06:36;99740.41;;;13.60;100.00
15634;BME280;14654;48.898;8.308;2022-09-16T01:09:03;99732.63;;;13.60;100.00
15634;BME280;14654;48.898;8.308;2022-09-16T01:11:28;99742.94;;;13.63;100.00
15634;BME280;14654;48.898;8.308;2022-09-16T01:13:54;99740.25;;;13.66;100.00
15634;BME280;14654;48.898;8.308;2022-09-16T01:16:42;99746.09;;;13.73;100.00
15634;BME280;14654;48.898;8.308;2022-09-16T01:19:31;99745.09;;;13.77;100.00
15634;BME280;14654;48.898;8.308;2022-09-16T01:22:29;99742.47;;;13.79;100.00
15634;BME280;14654;48.898;8.308;2022-09-16T01:27:57;99735.41;;;13.82;100.00
15634;BME280;14654;48.898;8.308;2022-09-16T01:33:05;99729.22;;;13.86;100.00
15634;BME280;14654;48.898;8.308;2022-09-16T01:53:56;99720.59;;;13.84;100.00
15634;BME280;14654;48.898;8.308;2022-09-16T01:59:07;99719.72;;;13.85;100.00
15634;BME280;14654;48.898;8.308;2022-09-16T02:01:38;99722.25;;;13.87;100.00
15634;BME280;14654;48.898;8.308;2022-09-16T02:04:12;99729.13;;;13.90;100.00
15634;BME280;14654;48.898;8.308;2022-09-16T02:06:39;99721.25;;;13.91;100.00
15634;BME280;14654;48.898;8.308;2022-09-16T02:09:12;99726.31;;;13.96;100.00
15634;BME280;14654;48.898;8.308;2022-09-16T02:11:40;99714.09;;;13.98;100.00
15634;BME280;14654;48.898;8.308;2022-09-16T02:14:20;99726.97;;;14.02;100.00
15634;BME280;14654;48.898;8.308;2022-09-16T02:16:53;99723.44;;;14.05;100.00
15634;BME280;14654;48.898;8.308;2022-09-16T02:19:27;99733.78;;;14.07;100.00
15634;BME280;14654;48.898;8.308;2022-09-16T02:21:56;99737.19;;;14.09;100.00
15634;BME280;14654;48.898;8.308;2022-09-16T02:24:26;99740.63;;;14.09;100.00
15634;BME280;14654;48.898;8.308;2022-09-16T02:26:57;99748.41;;;14.11;100.00
15634;BME280;14654;48.898;8.308;2022-09-16T02:29:31;99732.81;;;14.09;100.00
15634;BME280;14654;48.898;8.308;2022-09-16T02:32:00;99735.41;;;14.09;100.00
15634;BME280;14654;48.898;8.308;2022-09-16T02:34:33;99725.13;;;14.06;100.00
15634;BME280;14654;48.898;8.308;2022-09-16T02:37:05;99731.25;;;14.03;100.00
15634;BME280;14654;48.898;8.308;2022-09-16T02:39:33;99728.66;;;14.03;100.00
15634;BME280;14654;48.898;8.308;2022-09-16T02:42:01;99729.53;;;14.04;100.00
15634;BME280;14654;48.898;8.308;2022-09-16T02:44:28;99732.06;;;14.06;100.00
15634;BME280;14654;48.898;8.308;2022-09-16T02:50:00;99733.72;;;14.08;100.00
15634;BME280;14654;48.898;8.308;2022-09-16T02:52:43;99730.34;;;14.06;100.00
15634;BME280;14654;48.898;8.308;2022-09-16T02:57:55;99722.53;;;14.06;100.00
15634;BME280;14654;48.898;8.308;2022-09-16T03:00:21;99715.50;;;14.08;100.00
15634;BME280;14654;48.898;8.308;2022-09-16T03:02:46;99717.19;;;14.09;100.00
15634;BME280;14654;48.898;8.308;2022-09-16T03:05:12;99711.97;;;14.11;100.00
15634;BME280;14654;48.898;8.308;2022-09-16T03:07:40;99716.28;;;14.12;100.00
15634;BME280;14654;48.898;8.308;2022-09-16T03:10:11;99717.91;;;14.14;100.00
15634;BME280;14654;48.898;8.308;2022-09-16T03:18:47;99707.41;;;14.17;100.00
15634;BME280;14654;48.898;8.308;2022-09-16T03:21:42;99707.44;;;14.16;100.00
15634;BME280;14654;48.898;8.308;2022-09-16T03:24:17;99712.72;;;14.14;100.00
15634;BME280;14654;48.898;8.308;2022-09-16T03:34:28;99702.13;;;14.19;100.00
15634;BME280;14654;48.898;8.308;2022-09-16T03:37:00;99704.75;;;14.19;100.00
15634;BME280;14654;48.898;8.308;2022-09-16T03:39:26;99708.16;;;14.21;100.00
15634;BME280;14654;48.898;8.308;2022-09-16T03:41:52;99700.28;;;14.23;100.00
15634;BME280;14654;48.898;8.308;2022-09-16T03:44:19;99698.47;;;14.25;100.00
15634;BME280;14654;48.898;8.308;2022-09-16T03:46:44;99706.25;;;14.26;100.00
15634;BME280;14654;48.898;8.308;2022-09-16T03:49:10;99706.19;;;14.28;100.00
15634;BME280;14654;48.898;8.308;2022-09-16T03:51:35;99693.19;;;14.28;100.00
15634;BME280;14654;48.898;8.308;2022-09-16T03:54:00;99693.09;;;14.29;100.00
15634;BME280;14654;48.898;8.308;2022-09-16T03:56:26;99683.72;;;14.25;100.00
15634;BME280;14654;48.898;8.308;2022-09-16T03:58:51;99692.44;;;14.24;100.00
15634;BME280;14654;48.898;8.308;2022-09-16T04:01:17;99695.84;;;14.26;100.00
15634;BME280;14654;48.898;8.308;2022-09-16T04:03:42;99690.56;;;14.28;100.00
15634;BME280;14654;48.898;8.308;2022-09-16T04:06:08;99697.41;;;14.30;100.00
15634;BME280;14654;48.898;8.308;2022-09-16T04:08:33;99702.59;;;14.32;100.00
15634;BME280;14654;48.898;8.308;2022-09-16T04:11:01;99699.13;;;14.31;100.00
15634;BME280;14654;48.898;8.308;2022-09-16T04:13:31;99704.38;;;14.30;100.00
15634;BME280;14654;48.898;8.308;2022-09-16T04:15:57;99698.38;;;14.28;100.00
15634;BME280;14654;48.898;8.308;2022-09-16T04:18:23;99694.03;;;14.28;100.00
15634;BME280;14654;48.898;8.308;2022-09-16T04:20:48;99696.66;;;14.28;100.00
15634;BME280;14654;48.898;8.308;2022-09-16T04:23:13;99692.28;;;14.29;100.00
15634;BME280;14654;48.898;8.308;2022-09-16T04:25:39;99701.84;;;14.28;100.00
15634;BME280;14654;48.898;8.308;2022-09-16T04:28:05;99692.44;;;14.24;100.00
15634;BME280;14654;48.898;8.308;2022-09-16T04:30:31;99702.09;;;14.21;100.00
15634;BME280;14654;48.898;8.308;2022-09-16T04:32:58;99702.19;;;14.17;100.00
15634;BME280;14654;48.898;8.308;2022-09-16T04:35:24;99688.44;;;14.14;100.00
15634;BME280;14654;48.898;8.308;2022-09-16T04:37:50;99695.47;;;14.12;100.00
15634;BME280;14654;48.898;8.308;2022-09-16T04:40:18;99686.78;;;14.11;100.00
15634;BME280;14654;48.898;8.308;2022-09-16T04:42:48;99689.34;;;14.13;100.00
15634;BME280;14654;48.898;8.308;2022-09-16T04:45:14;99692.84;;;14.12;100.00
15634;BME280;14654;48.898;8.308;2022-09-16T04:47:39;99702.38;;;14.13;100.00
15634;BME280;14654;48.898;8.308;2022-09-16T04:50:06;99706.84;;;14.08;100.00
15634;BME280;14654;48.898;8.308;2022-09-16T04:52:31;99701.75;;;14.05;100.00
15634;BME280;14654;48.898;8.308;2022-09-16T04:54:57;99700.91;;;14.04;100.00
15634;BME280;14654;48.898;8.308;2022-09-16T04:57:22;99705.22;;;14.05;100.00
15634;BME280;14654;48.898;8.308;2022-09-16T04:59:48;99705.47;;;13.97;100.00
15634;BME280;14654;48.898;8.308;2022-09-16T05:02:13;99714.16;;;13.96;100.00
15634;BME280;14654;48.898;8.308;2022-09-16T05:04:39;99706.53;;;13.90;100.00
15634;BME280;14654;48.898;8.308;2022-09-16T05:07:04;99706.63;;;13.87;100.00
15634;BME280;14654;48.898;8.308;2022-09-16T05:09:30;99715.47;;;13.83;100.00
15634;BME280;14654;48.898;8.308;2022-09-16T05:11:55;99708.69;;;13.77;100.00
15634;BME280;14654;48.898;8.308;2022-09-16T05:14:20;99714.75;;;13.78;100.00
15634;BME280;14654;48.898;8.308;2022-09-16T05:16:46;99712.88;;;13.81;100.00
15634;BME280;14654;48.898;8.308;2022-09-16T05:19:12;99706.84;;;13.81;100.00
15634;BME280;14654;48.898;8.308;2022-09-16T05:21:38;99712.09;;;13.79;100.00
15634;BME280;14654;48.898;8.308;2022-09-16T05:24:07;99712.16;;;13.78;100.00
15634;BME280;14654;48.898;8.308;2022-09-16T05:26:35;99706.13;;;13.76;100.00
15634;BME280;14654;48.898;8.308;2022-09-16T05:29:03;99708.03;;;13.70;100.00
15634;BME280;14654;48.898;8.308;2022-09-16T05:31:31;99715.06;;;13.67;100.00
15634;BME280;14654;48.898;8.308;2022-09-16T05:34:04;99717.81;;;13.62;100.00
15634;BME280;14654;48.898;8.308;2022-09-16T05:36:31;99717.91;;;13.59;100.00
15634;BME280;14654;48.898;8.308;2022-09-16T05:38:57;99724.22;;;13.52;100.00
15634;BME280;14654;48.898;8.308;2022-09-16T05:41:23;99714.59;;;13.54;100.00
15634;BME280;14654;48.898;8.308;2022-09-16T05:43:48;99712.06;;;13.52;100.00
15634;BME280;14654;48.898;8.308;2022-09-16T05:46:19;99713.91;;;13.49;100.00
15634;BME280;14654;48.898;8.308;2022-09-16T05:48:45;99718.34;;;13.45;100.00
15634;BME280;14654;48.898;8.308;2022-09-16T05:51:14;99715.84;;;13.42;100.00
15634;BME280;14654;48.898;8.308;2022-09-16T05:53:39;99716.72;;;13.39;100.00
15634;BME280;14654;48.898;8.308;2022-09-16T05:56:16;99716.72;;;13.39;100.00
15634;BME280;14654;48.898;8.308;2022-09-16T05:58:42;99725.44;;;13.38;100.00
15634;BME280;14654;48.898;8.308;2022-09-16T06:01:10;99728.78;;;13.44;100.00
15634;BME280;14654;48.898;8.308;2022-09-16T06:03:39;99726.97;;;13.46;100.00
15634;BME280;14654;48.898;8.308;2022-09-16T06:08:54;99741.81;;;13.42;100.00
15634;BME280;14654;48.898;8.308;2022-09-16T06:11:21;99738.28;;;13.45;100.00
15634;BME280;14654;48.898;8.308;2022-09-16T06:13:46;99740.88;;;13.45;100.00
15634;BME280;14654;48.898;8.308;2022-09-16T06:16:16;99746.78;;;13.50;100.00
15634;BME280;14654;48.898;8.308;2022-09-16T06:18:41;99753.72;;;13.49;100.00
15634;BME280;14654;48.898;8.308;2022-09-16T06:21:10;99753.88;;;13.45;100.00
15634;BME280;14654;48.898;8.308;2022-09-16T06:23:37;99756.47;;;13.45;100.00
15634;BME280;14654;48.898;8.308;2022-09-16T06:26:07;99757.34;;;13.44;100.00
15634;BME280;14654;48.898;8.308;2022-09-16T06:28:32;99760.03;;;13.40;100.00
15634;BME280;14654;48.898;8.308;2022-09-16T06:31:15;99754.81;;;13.42;100.00
15634;BME280;14654;48.898;8.308;2022-09-16T06:33:42;99764.22;;;13.46;100.00
15634;BME280;14654;48.898;8.308;2022-09-16T06:36:10;99763.19;;;13.52;100.00
15634;BME280;14654;48.898;8.308;2022-09-16T06:38:36;99753.50;;;13.57;100.00
15634;BME280;14654;48.898;8.308;2022-09-16T06:41:04;99757.63;;;13.64;100.00
15634;BME280;14654;48.898;8.308;2022-09-16T06:43:30;99753.03;;;13.72;100.00
15634;BME280;14654;48.898;8.308;2022-09-16T06:45:57;99751.81;;;13.84;100.00
15634;BME280;14654;48.898;8.308;2022-09-16T06:48:23;99752.31;;;13.96;100.00
15634;BME280;14654;48.898;8.308;2022-09-16T06:50:59;99756.53;;;14.00;100.00
15634;BME280;14654;48.898;8.308;2022-09-16T06:53:25;99756.59;;;13.98;100.00
15634;BME280;14654;48.898;8.308;2022-09-16T06:55:51;99760.69;;;14.06;100.00
15634;BME280;14654;48.898;8.308;2022-09-16T06:58:16;99753.63;;;14.09;100.00
15634;BME280;14654;48.898;8.308;2022-09-16T07:00:42;99745.78;;;14.11;100.00
15634;BME280;14654;48.898;8.308;2022-09-16T07:03:07;99750.19;;;14.09;100.00
15634;BME280;14654;48.898;8.308;2022-09-16T07:05:32;99757.00;;;14.13;100.00
15634;BME280;14654;48.898;8.308;2022-09-16T07:07:58;99760.25;;;14.20;100.00
15634;BME280;14654;48.898;8.308;2022-09-16T07:10:24;99760.00;;;14.27;100.00
15634;BME280;14654;48.898;8.308;2022-09-16T07:12:50;99767.56;;;14.35;100.00
15634;BME280;14654;48.898;8.308;2022-09-16T07:15:15;99757.84;;;14.40;100.00
15634;BME280;14654;48.898;8.308;2022-09-16T07:17:41;99756.91;;;14.43;100.00
15634;BME280;14654;48.898;8.308;2022-09-16T07:20:06;99757.66;;;14.45;100.00
15634;BME280;14654;48.898;8.308;2022-09-16T07:22:31;99762.75;;;14.50;100.00
15634;BME280;14654;48.898;8.308;2022-09-16T07:24:57;99766.91;;;14.55;100.00
15634;BME280;14654;48.898;8.308;2022-09-16T07:27:22;99768.53;;;14.58;100.00
15634;BME280;14654;48.898;8.308;2022-09-16T07:29:49;99755.19;;;14.69;100.00
15634;BME280;14654;48.898;8.308;2022-09-16T07:32:14;99756.38;;;14.84;100.00
15634;BME280;14654;48.898;8.308;2022-09-16T07:34:39;99759.34;;;14.98;100.00
15634;BME280;14654;48.898;8.308;2022-09-16T07:37:05;99763.09;;;15.15;100.00
15634;BME280;14654;48.898;8.308;2022-09-16T07:39:30;99772.06;;;15.31;100.00
15634;BME280;14654;48.898;8.308;2022-09-16T07:41:55;99762.94;;;15.43;100.00
15634;BME280;14654;48.898;8.308;2022-09-16T07:44:21;99770.38;;;15.54;100.00
15634;BME280;14654;48.898;8.308;2022-09-16T07:46:47;99769.22;;;15.61;100.00
15634;BME280;14654;48.898;8.308;2022-09-16T07:49:15;99768.38;;;15.61;100.00
15634;BME280;14654;48.898;8.308;2022-09-16T07:51:41;99770.00;;;15.63;100.00
15634;BME280;14654;48.898;8.308;2022-09-16T07:54:10;99780.25;;;15.68;100.00
15634;BME280;14654;48.898;8.308;2022-09-16T07:56:38;99782.06;;;15.66;100.00
15634;BME280;14654;48.898;8.308;2022-09-16T07:59:06;99782.88;;;15.68;100.00
15634;BME280;14654;48.898;8.308;2022-09-16T08:01:31;99794.28;;;15.65;100.00
15634;BME280;14654;48.898;8.308;2022-09-16T08:03:58;99789.44;;;15.56;100.00
15634;BME280;14654;48.898;8.308;2022-09-16T08:06:28;99792.94;;;15.55;100.00
15634;BME280;14654;48.898;8.308;2022-09-16T08:08:56;99788.53;;;15.57;100.00
15634;BME280;14654;48.898;8.308;2022-09-16T08:11:25;99791.16;;;15.55;100.00
15634;BME280;14654;48.898;8.308;2022-09-16T08:13:51;99792.03;;;15.56;100.00
15634;BME280;14654;48.898;8.308;2022-09-16T08:16:19;99790.34;;;15.55;100.00
15634;BME280;14654;48.898;8.308;2022-09-16T08:18:46;99794.69;;;15.54;100.00
15634;BME280;14654;48.898;8.308;2022-09-16T08:21:17;99800.00;;;15.51;100.00
15634;BME280;14654;48.898;8.308;2022-09-16T08:23:44;99794.13;;;15.46;100.00
15634;BME280;14654;48.898;8.308;2022-09-16T08:26:10;99803.84;;;15.43;100.00
15634;BME280;14654;48.898;8.308;2022-09-16T08:28:37;99800.47;;;15.39;100.00
15634;BME280;14654;48.898;8.308;2022-09-16T08:31:04;99802.16;;;15.40;100.00
15634;BME280;14654;48.898;8.308;2022-09-16T08:33:30;99808.06;;;15.45;100.00
15634;BME280;14654;48.898;8.308;2022-09-16T08:38:24;99796.84;;;15.43;100.00
15634;BME280;14654;48.898;8.308;2022-09-16T08:40:50;99798.84;;;15.36;100.00
15634;BME280;14654;48.898;8.308;2022-09-16T08:46:25;99799.41;;;15.21;100.00
15634;BME280;14654;48.898;8.308;2022-09-16T08:51:34;99799.59;;;15.15;100.00
15634;BME280;14654;48.898;8.308;2022-09-16T08:54:06;99807.28;;;15.19;100.00
15634;BME280;14654;48.898;8.308;2022-09-16T08:56:35;99815.19;;;15.16;100.00
15634;BME280;14654;48.898;8.308;2022-09-16T08:59:04;99810.94;;;15.14;100.00
15634;BME280;14654;48.898;8.308;2022-09-16T09:01:48;99811.84;;;15.13;100.00
15634;BME280;14654;48.898;8.308;2022-09-16T09:04:16;99814.44;;;15.13;100.00
15634;BME280;14654;48.898;8.308;2022-09-16T09:07:05;99815.19;;;15.16;100.00
15634;BME280;14654;48.898;8.308;2022-09-16T09:12:37;99818.66;;;15.17;100.00
15634;BME280;14654;48.898;8.308;2022-09-16T09:20:23;99818.66;;;15.17;100.00
15634;BME280;14654;48.898;8.308;2022-09-16T09:25:40;99814.28;;;15.17;100.00
15634;BME280;14654;48.898;8.308;2022-09-16T09:31:04;99819.34;;;15.22;100.00
15634;BME280;14654;48.898;8.308;2022-09-16T09:33:45;99827.19;;;15.20;100.00
15634;BME280;14654;48.898;8.308;2022-09-16T09:36:18;99821.97;;;15.20;100.00
15634;BME280;14654;48.898;8.308;2022-09-16T09:41:51;99827.97;;;15.24;100.00
15634;BME280;14654;48.898;8.308;2022-09-16T09:47:03;99819.25;;;15.25;100.00
15634;BME280;14654;48.898;8.308;2022-09-16T09:49:34;99822.56;;;15.29;100.00
15634;BME280;14654;48.898;8.308;2022-09-16T09:54:34;99824.19;;;15.33;100.00
15634;BME280;14654;48.898;8.308;2022-09-16T09:57:04;99816.47;;;15.30;100.00
15634;BME280;14654;48.898;8.308;2022-09-16T09:59:43;99822.56;;;15.29;100.00
15634;BME280;14654;48.898;8.308;2022-09-16T10:02:17;99815.81;;;15.23;100.00
15634;BME280;14654;48.898;8.308;2022-09-16T10:04:44;99828.34;;;15.13;100.00
15634;BME280;14654;48.898;8.308;2022-09-16T10:07:12;99827.75;;;15.05;100.00
15634;BME280;14654;48.898;8.308;2022-09-16T10:09:47;99834.09;;;14.98;100.00
15634;BME280;14654;48.898;8.308;2022-09-16T10:12:32;99829.13;;;14.90;100.00
15634;BME280;14654;48.898;8.308;2022-09-16T10:14:58;99825.97;;;14.80;100.00
15634;BME280;14654;48.898;8.308;2022-09-16T10:17:25;99823.53;;;14.75;100.00
15634;BME280;14654;48.898;8.308;2022-09-16T10:20:04;99830.50;;;14.75;100.00
15634;BME280;14654;48.898;8.308;2022-09-16T10:22:33;99831.41;;;14.74;100.00
15634;BME280;14654;48.898;8.308;2022-09-16T10:25:01;99827.06;;;14.74;100.00
15634;BME280;14654;48.898;8.308;2022-09-16T10:27:35;99820.84;;;14.78;100.00
15634;BME280;14654;48.898;8.308;2022-09-16T10:32:47;99818.63;;;14.93;100.00
15634;BME280;14654;48.898;8.308;2022-09-16T10:35:17;99824.13;;;15.09;100.00
15634;BME280;14654;48.898;8.308;2022-09-16T10:37:53;99820.06;;;15.26;100.00
15634;BME280;14654;48.898;8.308;2022-09-16T10:40:20;99817.81;;;15.40;100.00
15634;BME280;14654;48.898;8.308;2022-09-16T10:42:48;99819.66;;;15.62;100.00
15634;BME280;14654;48.898;8.308;2022-09-16T10:47:56;99815.94;;;16.13;100.00
15634;BME280;14654;48.898;8.308;2022-09-16T10:50:23;99817.13;;;16.28;100.00
15634;BME280;14654;48.898;8.308;2022-09-16T10:52:49;99807.25;;;16.35;100.00
15634;BME280;14654;48.898;8.308;2022-09-16T10:57:49;99806.84;;;16.46;100.00
15634;BME280;14654;48.898;8.308;2022-09-16T11:00:21;99801.75;;;16.64;100.00
15634;BME280;14654;48.898;8.308;2022-09-16T11:05:32;99806.78;;;17.30;100.00
15634;BME280;14654;48.898;8.308;2022-09-16T11:11:00;99802.81;;;17.79;100.00
15634;BME280;14654;48.898;8.308;2022-09-16T11:18:54;99805.97;;;18.77;100.00
15634;BME280;14654;48.898;8.308;2022-09-16T11:21:37;99813.59;;;19.16;100.00
15634;BME280;14654;48.898;8.308;2022-09-16T11:27:27;99808.47;;;19.97;100.00
15634;BME280;14654;48.898;8.308;2022-09-16T11:30:19;99811.91;;;20.29;100.00
15634;BME280;14654;48.898;8.308;2022-09-16T11:36:06;99809.44;;;20.26;100.00
15634;BME280;14654;48.898;8.308;2022-09-16T11:58:02;99789.91;;;19.84;100.00
15634;BME280;14654;48.898;8.308;2022-09-16T12:00:30;99787.59;;;19.77;100.00
15634;BME280;14654;48.898;8.308;2022-09-16T12:03:24;99778.56;;;19.67;100.00
15634;BME280;14654;48.898;8.308;2022-09-16T12:05:57;99784.75;;;19.98;100.00
15634;BME280;14654;48.898;8.308;2022-09-16T12:11:23;99781.78;;;19.88;100.00
15634;BME280;14654;48.898;8.308;2022-09-16T12:14:02;99775.34;;;19.94;100.00
15634;BME280;14654;48.898;8.308;2022-09-16T12:17:07;99758.13;;;20.04;100.00
15634;BME280;14654;48.898;8.308;2022-09-16T12:19:33;99750.44;;;20.01;100.00
15634;BME280;14654;48.898;8.308;2022-09-16T12:22:22;99755.69;;;20.01;100.00
15634;BME280;14654;48.898;8.308;2022-09-16T12:25:24;99763.31;;;19.90;100.00
15634;BME280;14654;48.898;8.308;2022-09-16T12:30:46;99755.63;;;19.87;100.00
15634;BME280;14654;48.898;8.308;2022-09-16T12:33:19;99753.03;;;19.85;100.00
15634;BME280;14654;48.898;8.308;2022-09-16T12:35:58;99753.84;;;20.03;100.00
15634;BME280;14654;48.898;8.308;2022-09-16T12:38:26;99753.94;;;20.32;100.00
15634;BME280;14654;48.898;8.308;2022-09-16T12:44:28;99747.97;;;20.59;100.00
15634;BME280;14654;48.898;8.308;2022-09-16T12:52:35;99738.31;;;20.74;100.00
15634;BME280;14654;48.898;8.308;2022-09-16T13:00:54;99725.06;;;20.61;100.00
15634;BME280;14654;48.898;8.308;2022-09-16T13:03:25;99729.56;;;20.45;100.00
15634;BME280;14654;48.898;8.308;2022-09-16T13:05:53;99726.78;;;20.32;100.00
15634;BME280;14654;48.898;8.308;2022-09-16T13:08:26;99724.34;;;20.29;100.00
15634;BME280;14654;48.898;8.308;2022-09-16T13:11:00;99727.69;;;20.16;100.00
15634;BME280;14654;48.898;8.308;2022-09-16T13:13:39;99720.22;;;20.24;100.00
15634;BME280;14654;48.898;8.308;2022-09-16T13:16:06;99721.78;;;20.13;100.00
15634;BME280;14654;48.898;8.308;2022-09-16T13:18:50;99716.63;;;20.11;100.00
15634;BME280;14654;48.898;8.308;2022-09-16T13:21:26;99724.75;;;20.06;100.00
15634;BME280;14654;48.898;8.308;2022-09-16T13:26:22;99716.47;;;19.98;100.00
15634;BME280;14654;48.898;8.308;2022-09-16T13:28:48;99717.97;;;19.86;100.00
15634;BME280;14654;48.898;8.308;2022-09-16T13:33:41;99704.94;;;20.01;100.00
15634;BME280;14654;48.898;8.308;2022-09-16T13:38:43;99699.88;;;20.43;100.00
15634;BME280;14654;48.898;8.308;2022-09-16T13:41:11;99702.91;;;20.65;100.00
15634;BME280;14654;48.898;8.308;2022-09-16T13:46:13;99695.06;;;20.80;100.00
15634;BME280;14654;48.898;8.308;2022-09-16T13:51:28;99694.50;;;20.89;100.00
15634;BME280;14654;48.898;8.308;2022-09-16T13:53:54;99693.16;;;20.96;100.00
15634;BME280;14654;48.898;8.308;2022-09-16T14:01:44;99691.00;;;21.03;100.00
15634;BME280;14654;48.898;8.308;2022-09-16T14:09:53;99704.94;;;20.31;100.00
15634;BME280;14654;48.898;8.308;2022-09-16T14:15:05;99710.34;;;19.51;100.00
15634;BME280;14654;48.898;8.308;2022-09-16T14:17:44;99717.16;;;19.38;100.00
15634;BME280;14654;48.898;8.308;2022-09-16T14:20:13;99703.03;;;19.24;100.00
15634;BME280;14654;48.898;8.308;2022-09-16T14:22:40;99706.00;;;19.18;100.00
15634;BME280;14654;48.898;8.308;2022-09-16T14:25:27;99707.09;;;19.30;100.00
15634;BME280;14654;48.898;8.308;2022-09-16T14:28:06;99702.69;;;19.30;100.00
15634;BME280;14654;48.898;8.308;2022-09-16T14:30:32;99694.47;;;19.21;100.00
15634;BME280;14654;48.898;8.308;2022-09-16T14:33:00;99693.78;;;19.01;100.00
15634;BME280;14654;48.898;8.308;2022-09-16T14:35:26;99699.03;;;18.83;100.00
15634;BME280;14654;48.898;8.308;2022-09-16T14:37:56;99695.38;;;18.70;100.00
15634;BME280;14654;48.898;8.308;2022-09-16T14:40:23;99690.78;;;18.57;100.00
15634;BME280;14654;48.898;8.308;2022-09-16T14:42:53;99694.19;;;18.42;100.00
15634;BME280;14654;48.898;8.308;2022-09-16T14:45:20;99697.28;;;18.33;100.00
15634;BME280;14654;48.898;8.308;2022-09-16T14:47:46;99695.09;;;18.23;100.00
15634;BME280;14654;48.898;8.308;2022-09-16T14:50:17;99706.84;;;18.16;100.00
15634;BME280;14654;48.898;8.308;2022-09-16T14:52:58;99696.59;;;18.11;100.00
15634;BME280;14654;48.898;8.308;2022-09-16T14:55:26;99701.06;;;18.09;100.00
15634;BME280;14654;48.898;8.308;2022-09-16T14:57:54;99701.13;;;18.08;100.00
15634;BME280;14654;48.898;8.308;2022-09-16T15:00:20;99696.66;;;18.10;100.00
15634;BME280;14654;48.898;8.308;2022-09-16T15:02:51;99689.56;;;18.12;94.89
15634;BME280;14654;48.898;8.308;2022-09-16T15:05:22;99689.66;;;18.10;90.70
15634;BME280;14654;48.898;8.308;2022-09-16T15:07:51;99694.91;;;18.10;89.60
15634;BME280;14654;48.898;8.308;2022-09-16T15:12:47;99694.03;;;18.10;90.88
15634;BME280;14654;48.898;8.308;2022-09-16T15:15:19;99694.81;;;18.12;89.23
15634;BME280;14654;48.898;8.308;2022-09-16T15:18:08;99694.75;;;18.13;86.88
15634;BME280;14654;48.898;8.308;2022-09-16T15:20:38;99698.06;;;18.17;83.55
15634;BME280;14654;48.898;8.308;2022-09-16T15:23:05;99696.81;;;18.24;84.97
15634;BME280;14654;48.898;8.308;2022-09-16T15:25:33;99697.19;;;18.34;84.44
15634;BME280;14654;48.898;8.308;2022-09-16T15:28:25;99700.59;;;18.36;81.72
15634;BME280;14654;48.898;8.308;2022-09-16T15:30:54;99702.56;;;18.31;79.79
15634;BME280;14654;48.898;8.308;2022-09-16T15:33:39;99696.66;;;18.27;80.62
15634;BME280;14654;48.898;8.308;2022-09-16T15:36:05;99701.44;;;18.19;81.33
15634;BME280;14654;48.898;8.308;2022-09-16T15:38:32;99693.97;;;18.11;81.43
15634;BME280;14654;48.898;8.308;2022-09-16T15:41:24;99698.34;;;18.11;81.79
15634;BME280;14654;48.898;8.308;2022-09-16T15:43:50;99695.59;;;18.14;80.68
15634;BME280;14654;48.898;8.308;2022-09-16T15:46:23;99703.34;;;18.16;81.43
15634;BME280;14654;48.898;8.308;2022-09-16T15:49:10;99702.44;;;18.17;82.09
15634;BME280;14654;48.898;8.308;2022-09-16T15:51:48;99696.22;;;18.19;83.09
15634;BME280;14654;48.898;8.308;2022-09-16T15:54:27;99700.66;;;18.17;84.22
15634;BME280;14654;48.898;8.308;2022-09-16T15:57:11;99695.66;;;18.12;84.12